createdAt,value
2019-03-11T00:04:32.633Z,4.47
2019-03-11T00:09:34.271Z,4.09
2019-03-11T00:14:36.292Z,4.40
2019-03-11T00:19:36.008Z,3.48
2019-03-11T00:24:45.730Z,2.50
2019-03-11T00:29:57.994Z,3.16
2019-03-11T00:34:56.930Z,4.19
2019-03-11T00:40:07.284Z,2.59
2019-03-11T00:45:19.906Z,2.91
2019-03-11T00:50:15.082Z,2.89
2019-03-11T00:55:37.881Z,3.12
2019-03-11T01:00:34.299Z,4.24
2019-03-11T01:05:32.324Z,2.87
2019-03-11T01:10:47.484Z,4.30
2019-03-11T01:15:57.370Z,3.21
2019-03-11T01:20:51.604Z,3.99
2019-03-11T01:25:58.712Z,3.41
2019-03-11T01:31:18.187Z,4.10
2019-03-11T01:36:22.719Z,4.38
2019-03-11T01:41:16.194Z,5.30
2019-03-11T01:46:20.442Z,3.11
2019-03-11T01:51:22.371Z,4.06
2019-03-11T01:56:23.077Z,3.71
2019-03-11T02:01:27.033Z,4.88
2019-03-11T02:06:30.295Z,3.39
2019-03-11T02:11:34.245Z,4.00
2019-03-11T02:16:32.830Z,4.87
2019-03-11T02:21:31.072Z,3.05
2019-03-11T02:26:42.275Z,4.22
2019-03-11T02:31:48.198Z,2.84
2019-03-11T02:36:48.102Z,3.03
2019-03-11T02:41:46.816Z,3.32
2019-03-11T02:46:50.074Z,4.47
2019-03-11T02:51:49.063Z,2.96
2019-03-11T02:57:07.974Z,4.40
2019-03-11T03:02:13.119Z,6.22
2019-03-11T03:07:18.182Z,6.49
2019-03-11T03:12:19.442Z,4.72
2019-03-11T03:17:25.801Z,4.00
2019-03-11T03:22:26.781Z,3.55
2019-03-11T03:27:27.940Z,5.10
2019-03-11T03:32:41.102Z,3.41
2019-03-11T03:37:28.197Z,3.18
2019-03-11T03:42:49.236Z,4.13
2019-03-11T03:47:48.435Z,2.93
2019-03-11T03:53:00.099Z,3.40
2019-03-11T03:57:50.846Z,4.26
2019-03-11T04:03:03.764Z,3.42
2019-03-11T04:07:57.520Z,2.91
2019-03-11T04:12:59.582Z,3.55
2019-03-11T04:18:00.823Z,2.80
2019-03-11T04:23:09.967Z,3.71
2019-03-11T04:28:12.436Z,4.26
2019-03-11T04:33:27.390Z,3.50
2019-03-11T04:38:18.458Z,3.57
2019-03-11T04:43:28.573Z,3.01
2019-03-11T04:48:27.362Z,2.65
2019-03-11T04:53:28.134Z,3.23
2019-03-11T04:58:27.601Z,4.39
2019-03-11T05:08:47.232Z,3.29
2019-03-11T05:13:47.704Z,3.05
2019-03-11T05:24:14.059Z,5.18
2019-03-11T05:29:25.609Z,4.58
2019-03-11T05:34:08.781Z,5.79
2019-03-11T05:39:13.511Z,2.93
2019-03-11T05:44:16.129Z,4.11
2019-03-11T05:49:20.451Z,4.32
2019-03-11T05:54:27.284Z,2.32
2019-03-11T05:59:34.492Z,3.54
2019-03-11T06:04:39.979Z,4.84
2019-03-11T06:09:40.800Z,3.79
2019-03-11T06:14:53.173Z,3.46
2019-03-11T06:19:43.880Z,5.11
2019-03-11T06:24:48.096Z,3.90
2019-03-11T06:29:53.006Z,2.29
2019-03-11T06:34:54.026Z,4.15
2019-03-11T06:39:53.299Z,5.07
2019-03-11T06:45:16.185Z,5.46
2019-03-11T06:50:15.436Z,3.22
2019-03-11T06:55:32.086Z,3.89
2019-03-11T07:00:37.058Z,3.67
2019-03-11T07:10:42.132Z,4.18
2019-03-11T07:15:52.386Z,3.72
2019-03-11T07:20:53.799Z,2.84
2019-03-11T07:26:02.838Z,4.35
2019-03-11T07:31:05.550Z,5.65
2019-03-11T07:36:08.149Z,4.66
2019-03-11T07:41:05.799Z,3.00
2019-03-11T07:46:18.800Z,4.38
2019-03-11T07:51:21.650Z,3.44
2019-03-11T07:56:26.824Z,4.05
2019-03-11T08:01:32.139Z,2.72
2019-03-11T08:06:23.659Z,4.80
2019-03-11T08:11:31.755Z,7.45
2019-03-11T08:16:45.132Z,5.98
2019-03-11T08:21:45.713Z,5.70
2019-03-11T08:26:50.208Z,4.36
2019-03-11T08:31:50.524Z,3.58
2019-03-11T08:36:55.635Z,5.81
2019-03-11T08:41:50.935Z,5.53
2019-03-11T08:46:56.510Z,5.36
2019-03-11T08:52:00.400Z,5.87
2019-03-11T08:57:02.563Z,5.07
2019-03-11T09:02:02.312Z,5.46
2019-03-11T09:07:15.117Z,4.83
2019-03-11T09:12:17.578Z,6.61
2019-03-11T09:17:21.995Z,5.30
2019-03-11T09:22:21.691Z,4.65
2019-03-11T09:27:37.583Z,5.17
2019-03-11T09:32:44.098Z,6.57
2019-03-11T09:37:42.406Z,6.34
2019-03-11T09:43:03.304Z,4.49
2019-03-11T09:47:58.700Z,5.88
2019-03-11T09:53:03.669Z,3.71
2019-03-11T09:58:07.086Z,4.83
2019-03-11T10:03:11.290Z,6.35
2019-03-11T10:08:12.027Z,5.54
2019-03-11T10:13:27.519Z,5.01
2019-03-11T10:18:16.230Z,5.19
2019-03-11T10:23:19.204Z,5.20
2019-03-11T10:28:19.370Z,5.49
2019-03-11T10:33:21.261Z,5.88
2019-03-11T10:38:19.902Z,6.94
2019-03-11T10:43:41.173Z,12.27
2019-03-11T10:48:37.202Z,10.81
2019-03-11T10:53:35.298Z,10.17
2019-03-11T10:58:43.031Z,9.00
2019-03-11T11:03:42.538Z,9.79
2019-03-11T11:08:56.646Z,7.34
2019-03-11T11:13:52.969Z,10.14
2019-03-11T11:18:55.371Z,9.84
2019-03-11T11:23:55.247Z,8.98
2019-03-11T11:29:06.446Z,8.37
2019-03-11T11:34:06.400Z,6.85
2019-03-11T11:39:09.647Z,9.84
2019-03-11T11:44:12.004Z,13.73
2019-03-11T11:49:12.037Z,10.50
2019-03-11T11:54:14.030Z,10.10
2019-03-11T11:59:16.672Z,10.69
2019-03-11T12:04:16.643Z,11.15
2019-03-11T12:09:17.477Z,9.87
2019-03-11T12:14:20.975Z,10.93
2019-03-11T12:19:21.841Z,10.57
2019-03-11T12:24:21.688Z,8.27
2019-03-11T12:29:27.892Z,11.08
2019-03-11T12:34:27.460Z,8.55
2019-03-11T12:39:28.692Z,6.74
2019-03-11T12:44:29.377Z,8.22
2019-03-11T12:49:36.634Z,7.70
2019-03-11T12:54:37.031Z,7.21
2019-03-11T12:59:40.671Z,5.53
2019-03-11T13:04:39.231Z,5.64
2019-03-11T13:09:41.210Z,7.45
2019-03-11T13:14:44.418Z,7.16
2019-03-11T13:19:49.232Z,7.01
2019-03-11T13:24:47.603Z,11.81
2019-03-11T13:30:02.488Z,6.41
2019-03-11T13:35:30.712Z,9.04
2019-03-11T13:40:15.093Z,7.93
2019-03-11T13:45:33.266Z,6.35
2019-03-11T13:50:31.481Z,12.32
2019-03-11T13:55:41.627Z,6.51
2019-03-11T14:00:56.804Z,6.00
2019-03-11T14:05:53.274Z,7.28
2019-03-11T14:10:58.240Z,9.33
2019-03-11T14:16:01.868Z,7.65
2019-03-11T14:21:02.156Z,6.74
2019-03-11T14:26:14.744Z,7.18
2019-03-11T14:31:26.945Z,8.09
2019-03-11T14:36:23.297Z,8.30
2019-03-11T14:41:33.579Z,6.98
2019-03-11T14:46:23.888Z,13.90
2019-03-11T14:51:27.993Z,8.27
2019-03-11T14:56:33.035Z,11.09
2019-03-11T15:01:34.438Z,9.98
2019-03-11T15:06:39.884Z,7.82
2019-03-11T15:11:40.403Z,8.68
2019-03-11T15:16:44.887Z,8.99
2019-03-11T15:21:45.833Z,9.85
2019-03-11T15:26:44.960Z,11.18
2019-03-11T15:31:58.510Z,10.85
2019-03-11T15:36:47.926Z,10.97
2019-03-11T15:41:54.383Z,9.66
2019-03-11T15:46:57.168Z,11.25
2019-03-11T15:52:04.235Z,11.25
2019-03-11T15:57:03.043Z,12.06
2019-03-11T16:02:14.202Z,10.99
2019-03-11T16:07:24.579Z,13.06
2019-03-11T16:12:23.422Z,9.95
2019-03-11T16:17:25.949Z,11.37
2019-03-11T16:22:29.846Z,14.49
2019-03-11T16:27:31.750Z,14.73
2019-03-11T16:32:37.401Z,10.90
2019-03-11T16:37:41.507Z,12.52
2019-03-11T16:42:56.099Z,12.22
2019-03-11T16:47:47.850Z,10.95
2019-03-11T16:53:01.250Z,12.71
2019-03-11T16:58:10.498Z,9.32
2019-03-11T17:03:13.583Z,13.25
2019-03-11T17:08:08.934Z,17.28
2019-03-11T17:13:17.364Z,13.60
2019-03-11T17:18:16.931Z,13.15
2019-03-11T17:23:28.253Z,16.76
2019-03-11T17:28:25.836Z,14.05
2019-03-11T17:33:26.079Z,15.53
2019-03-11T17:38:26.337Z,17.32
2019-03-11T17:43:26.717Z,16.91
2019-03-11T17:48:27.635Z,12.70
2019-03-11T17:53:27.872Z,11.32
2019-03-11T17:58:27.751Z,11.70
2019-03-11T18:03:41.563Z,13.96
2019-03-11T18:08:41.125Z,10.29
2019-03-11T18:13:51.482Z,13.37
2019-03-11T18:18:51.387Z,14.80
2019-03-11T18:24:09.146Z,15.03
2019-03-11T18:29:11.062Z,12.26
2019-03-11T18:34:12.626Z,17.33
2019-03-11T18:39:19.241Z,14.74
2019-03-11T18:44:17.657Z,14.14
2019-03-11T18:49:24.577Z,10.71
2019-03-11T18:54:25.723Z,6.08
2019-03-11T18:59:26.697Z,5.17
2019-03-11T19:04:28.664Z,3.63
2019-03-11T19:09:32.182Z,3.78
2019-03-11T19:14:32.959Z,4.92
2019-03-11T19:19:32.377Z,5.36
2019-03-11T19:24:45.948Z,4.54
2019-03-11T19:29:48.969Z,4.57
2019-03-11T19:34:53.063Z,3.04
2019-03-11T19:39:59.397Z,4.82
2019-03-11T19:45:09.574Z,14.33
2019-03-11T19:49:57.942Z,11.16
2019-03-11T19:55:20.982Z,3.97
2019-03-11T20:00:22.307Z,2.03
2019-03-11T20:05:17.819Z,1.56
2019-03-11T20:10:33.861Z,2.05
2019-03-11T20:15:35.758Z,2.17
2019-03-11T20:20:35.890Z,4.53
2019-03-11T20:25:41.632Z,9.10
2019-03-11T20:30:56.938Z,5.97
2019-03-11T20:35:53.013Z,8.66
2019-03-11T20:40:54.939Z,19.24
2019-03-11T20:45:55.591Z,25.29
2019-03-11T20:56:07.098Z,3.98
2019-03-11T21:01:12.055Z,3.03
2019-03-11T21:06:10.615Z,2.74
2019-03-11T21:11:16.062Z,4.52
2019-03-11T21:16:23.038Z,10.09
2019-03-11T21:21:24.597Z,3.56
2019-03-11T21:26:27.373Z,16.16
2019-03-11T21:31:27.578Z,6.06
2019-03-11T21:36:32.048Z,20.11
2019-03-11T21:41:31.888Z,5.76
2019-03-11T21:46:48.351Z,3.68
2019-03-11T21:51:48.970Z,6.45
2019-03-11T21:56:51.021Z,2.91
2019-03-11T22:01:47.624Z,1.69
2019-03-11T22:06:54.573Z,1.86
2019-03-11T22:12:10.317Z,3.35
2019-03-11T22:17:05.566Z,1.46
2019-03-11T22:22:05.929Z,2.38
2019-03-11T22:27:12.931Z,1.88
2019-03-11T22:32:13.816Z,3.44
2019-03-11T22:37:22.605Z,3.34
2019-03-11T22:42:22.403Z,15.12
2019-03-11T22:47:31.398Z,4.83
2019-03-11T22:52:47.113Z,2.96
2019-03-11T22:57:34.033Z,1.56
2019-03-11T23:02:50.274Z,1.67
2019-03-11T23:07:36.779Z,1.35
2019-03-11T23:12:59.280Z,1.14
2019-03-11T23:17:51.124Z,1.28
2019-03-11T23:22:55.954Z,1.03
2019-03-11T23:27:55.628Z,1.45
2019-03-11T23:33:06.635Z,1.10
2019-03-11T23:38:20.571Z,10.51
2019-03-11T23:43:13.216Z,4.07
2019-03-11T23:48:14.916Z,2.40
2019-03-11T23:53:18.040Z,3.79
2019-03-11T23:58:18.294Z,7.11
